Impacts TAF Board
For situational awareness. Not to be used for flight planning purposes.
IDs:

KSAN - San Diego Intl Arpt, CA, US

Issued at 0731 UTC 21 Sep 2018
Updated at 0741 UTC 21 Sep 2018
Potential Impact None Slight Moderate High
Time<<21/20Z 21/21Z 21/22Z 21/23Z 22/00Z 22/01Z 22/02Z 22/03Z 22/04Z 22/05Z 22/06Z 22/07Z 22/08Z>>
Type PRVL PRVL PRVL PRVL PRVL PRVL PRVL PRVL PRVL PRVL PRVL PRVL PRVL
VIS >6 >6 >6 >6 >6 >6 >6 >6 >6 >6 >6 >6 >6
CIG -- -- -- -- -- -- -- -- 12 12 12 12 12
Cover FEW FEW FEW FEW FEW FEW FEW FEW OVC OVC OVC OVC OVC
FltCat VFR VFR VFR VFR VFR VFR VFR VFR MVFR MVFR MVFR MVFR MVFR
WX -- -- -- -- -- -- -- -- -- -- -- -- --
WDir 280 280 280 280 280 280 280 280 330 330 330 330 330
WSpd 8 8 8 8 8 8 8 8 4 4 4 4 4
WGst -- -- -- -- -- -- -- -- -- -- -- -- --
Raw TAF
KSAN 210731Z 2108/2212 VRB06KT P6SM FEW015
  FM210900 VRB04KT P6SM OVC015
  FM211200 VRB04KT 5SM BR OVC013
  FM211900 28008KT P6SM FEW010
  FM220400 33004KT P6SM OVC012


METAR Board
Radar Display
Forecast Discussion
For situational awareness. Not to be used for flight planning purposes.